sensor_id;sensor_type;location;lat;lon;timestamp;temperature;humidity
6930;DHT22;3504;52.616;13.238;2023-07-29T00:04:11;18.21;84.20
6930;DHT22;3504;52.616;13.238;2023-07-29T00:09:12;18.10;84.09
6930;DHT22;3504;52.616;13.238;2023-07-29T00:14:12;18.05;84.08
6930;DHT22;3504;52.616;13.238;2023-07-29T00:19:13;17.99;84.50
6930;DHT22;3504;52.616;13.238;2023-07-29T00:24:13;17.90;85.24
6930;DHT22;3504;52.616;13.238;2023-07-29T00:29:14;17.85;84.64
6930;DHT22;3504;52.616;13.238;2023-07-29T00:34:14;17.82;84.23
6930;DHT22;3504;52.616;13.238;2023-07-29T00:39:19;17.78;84.57
6930;DHT22;3504;52.616;13.238;2023-07-29T00:44:20;17.72;84.29
6930;DHT22;3504;52.616;13.238;2023-07-29T00:49:21;17.64;84.26
6930;DHT22;3504;52.616;13.238;2023-07-29T00:54:22;17.58;84.24
6930;DHT22;3504;52.616;13.238;2023-07-29T00:59:22;17.54;84.18
6930;DHT22;3504;52.616;13.238;2023-07-29T01:04:23;17.44;84.77
6930;DHT22;3504;52.616;13.238;2023-07-29T01:20:15;17.35;85.11
6930;DHT22;3504;52.616;13.238;2023-07-29T01:25:16;17.31;84.76
6930;DHT22;3504;52.616;13.238;2023-07-29T01:30:19;17.27;84.51
6930;DHT22;3504;52.616;13.238;2023-07-29T01:36:07;17.24;84.24
6930;DHT22;3504;52.616;13.238;2023-07-29T01:41:01;17.21;84.46
6930;DHT22;3504;52.616;13.238;2023-07-29T01:46:02;17.17;84.85
6930;DHT22;3504;52.616;13.238;2023-07-29T01:51:03;17.11;84.64
6930;DHT22;3504;52.616;13.238;2023-07-29T01:56:04;17.07;84.72
6930;DHT22;3504;52.616;13.238;2023-07-29T02:01:06;17.07;84.75
6930;DHT22;3504;52.616;13.238;2023-07-29T02:06:06;17.06;84.87
6930;DHT22;3504;52.616;13.238;2023-07-29T02:11:07;17.00;84.58
6930;DHT22;3504;52.616;13.238;2023-07-29T02:16:07;16.92;84.61
6930;DHT22;3504;52.616;13.238;2023-07-29T02:21:08;16.89;84.27
6930;DHT22;3504;52.616;13.238;2023-07-29T02:26:09;16.83;84.80
6930;DHT22;3504;52.616;13.238;2023-07-29T02:31:14;16.80;86.04
6930;DHT22;3504;52.616;13.238;2023-07-29T02:36:16;16.77;85.60
6930;DHT22;3504;52.616;13.238;2023-07-29T02:41:16;16.76;85.53
6930;DHT22;3504;52.616;13.238;2023-07-29T02:46:17;16.77;85.84
6930;DHT22;3504;52.616;13.238;2023-07-29T02:51:18;16.76;85.87
6930;DHT22;3504;52.616;13.238;2023-07-29T02:56:18;16.69;85.94
6930;DHT22;3504;52.616;13.238;2023-07-29T03:01:19;16.67;86.15
6930;DHT22;3504;52.616;13.238;2023-07-29T03:06:20;16.67;85.84
6930;DHT22;3504;52.616;13.238;2023-07-29T03:11:21;16.67;85.65
6930;DHT22;3504;52.616;13.238;2023-07-29T03:16:21;16.67;85.45
6930;DHT22;3504;52.616;13.238;2023-07-29T03:21:28;16.62;85.28
6930;DHT22;3504;52.616;13.238;2023-07-29T03:26:29;16.56;85.30
6930;DHT22;3504;52.616;13.238;2023-07-29T03:31:30;16.56;85.49
6930;DHT22;3504;52.616;13.238;2023-07-29T03:36:30;16.56;85.78
6930;DHT22;3504;52.616;13.238;2023-07-29T03:41:31;16.53;85.38
6930;DHT22;3504;52.616;13.238;2023-07-29T03:46:31;16.55;85.51
6930;DHT22;3504;52.616;13.238;2023-07-29T03:51:32;16.56;85.57
6930;DHT22;3504;52.616;13.238;2023-07-29T03:56:32;16.59;85.65
6930;DHT22;3504;52.616;13.238;2023-07-29T04:01:35;16.62;85.77
6930;DHT22;3504;52.616;13.238;2023-07-29T04:06:36;16.62;85.71
6930;DHT22;3504;52.616;13.238;2023-07-29T04:11:36;16.62;86.18
6930;DHT22;3504;52.616;13.238;2023-07-29T04:16:37;16.66;86.36
6930;DHT22;3504;52.616;13.238;2023-07-29T04:21:37;16.70;86.47
6930;DHT22;3504;52.616;13.238;2023-07-29T04:26:38;16.76;85.90
6930;DHT22;3504;52.616;13.238;2023-07-29T04:31:39;16.80;86.79
6930;DHT22;3504;52.616;13.238;2023-07-29T04:36:40;16.87;86.67
6930;DHT22;3504;52.616;13.238;2023-07-29T04:41:41;16.97;87.14
6930;DHT22;3504;52.616;13.238;2023-07-29T04:46:41;17.08;86.85
6930;DHT22;3504;52.616;13.238;2023-07-29T04:51:42;17.23;87.21
6930;DHT22;3504;52.616;13.238;2023-07-29T04:56:42;17.42;87.29
6930;DHT22;3504;52.616;13.238;2023-07-29T05:01:43;17.61;87.28
6930;DHT22;3504;52.616;13.238;2023-07-29T05:06:44;17.78;87.62
6930;DHT22;3504;52.616;13.238;2023-07-29T05:11:44;17.85;88.73
6930;DHT22;3504;52.616;13.238;2023-07-29T05:16:45;18.03;88.20
6930;DHT22;3504;52.616;13.238;2023-07-29T05:21:46;18.17;88.09
6930;DHT22;3504;52.616;13.238;2023-07-29T05:26:47;18.27;88.45
6930;DHT22;3504;52.616;13.238;2023-07-29T05:31:48;18.37;88.33
6930;DHT22;3504;52.616;13.238;2023-07-29T05:36:48;18.54;87.83
6930;DHT22;3504;52.616;13.238;2023-07-29T05:41:49;18.65;87.94
6930;DHT22;3504;52.616;13.238;2023-07-29T05:46:49;18.69;87.71
6930;DHT22;3504;52.616;13.238;2023-07-29T05:51:50;19.09;88.24
6930;DHT22;3504;52.616;13.238;2023-07-29T05:56:52;19.64;86.82
6930;DHT22;3504;52.616;13.238;2023-07-29T06:01:52;20.24;85.78
6930;DHT22;3504;52.616;13.238;2023-07-29T06:06:53;20.73;84.01
6930;DHT22;3504;52.616;13.238;2023-07-29T06:11:55;21.18;82.11
6930;DHT22;3504;52.616;13.238;2023-07-29T06:16:56;21.53;81.10
6930;DHT22;3504;52.616;13.238;2023-07-29T06:21:56;21.69;79.23
6930;DHT22;3504;52.616;13.238;2023-07-29T06:26:57;21.82;78.72
6930;DHT22;3504;52.616;13.238;2023-07-29T06:31:58;22.17;78.28
6930;DHT22;3504;52.616;13.238;2023-07-29T06:36:58;22.36;77.47
6930;DHT22;3504;52.616;13.238;2023-07-29T06:41:59;22.52;76.45
6930;DHT22;3504;52.616;13.238;2023-07-29T06:46:59;22.35;76.47
6930;DHT22;3504;52.616;13.238;2023-07-29T06:52:00;22.68;77.13
6930;DHT22;3504;52.616;13.238;2023-07-29T06:57:01;22.64;76.62
6930;DHT22;3504;52.616;13.238;2023-07-29T07:02:01;22.60;77.25
6930;DHT22;3504;52.616;13.238;2023-07-29T07:07:02;22.50;76.60
6930;DHT22;3504;52.616;13.238;2023-07-29T07:12:03;22.40;77.20
6930;DHT22;3504;52.616;13.238;2023-07-29T07:17:04;22.35;77.04
6930;DHT22;3504;52.616;13.238;2023-07-29T07:22:04;22.37;77.49
6930;DHT22;3504;52.616;13.238;2023-07-29T07:27:05;22.33;77.43
6930;DHT22;3504;52.616;13.238;2023-07-29T07:32:05;22.22;77.57
6930;DHT22;3504;52.616;13.238;2023-07-29T07:37:06;22.27;77.25
6930;DHT22;3504;52.616;13.238;2023-07-29T07:42:06;22.29;77.53
6930;DHT22;3504;52.616;13.238;2023-07-29T07:47:07;22.70;76.90
6930;DHT22;3504;52.616;13.238;2023-07-29T07:52:08;23.15;75.42
6930;DHT22;3504;52.616;13.238;2023-07-29T07:57:08;23.39;73.42
6930;DHT22;3504;52.616;13.238;2023-07-29T08:02:09;23.55;73.64
6930;DHT22;3504;52.616;13.238;2023-07-29T08:07:09;23.58;72.71
6930;DHT22;3504;52.616;13.238;2023-07-29T08:12:10;23.50;73.70
6930;DHT22;3504;52.616;13.238;2023-07-29T08:17:10;23.53;73.73
6930;DHT22;3504;52.616;13.238;2023-07-29T08:22:11;23.55;73.37
6930;DHT22;3504;52.616;13.238;2023-07-29T08:27:11;23.79;74.20
6930;DHT22;3504;52.616;13.238;2023-07-29T08:32:12;23.93;72.03
6930;DHT22;3504;52.616;13.238;2023-07-29T08:37:12;24.22;71.66
6930;DHT22;3504;52.616;13.238;2023-07-29T08:42:16;24.33;71.14
6930;DHT22;3504;52.616;13.238;2023-07-29T08:47:19;24.30;70.68
6930;DHT22;3504;52.616;13.238;2023-07-29T08:52:20;24.27;70.28
6930;DHT22;3504;52.616;13.238;2023-07-29T08:57:21;24.24;70.27
6930;DHT22;3504;52.616;13.238;2023-07-29T09:02:23;24.22;71.22
6930;DHT22;3504;52.616;13.238;2023-07-29T09:07:24;24.14;70.15
6930;DHT22;3504;52.616;13.238;2023-07-29T09:12:25;24.22;71.37
6930;DHT22;3504;52.616;13.238;2023-07-29T09:17:25;24.16;70.84
6930;DHT22;3504;52.616;13.238;2023-07-29T09:22:27;24.22;71.24
6930;DHT22;3504;52.616;13.238;2023-07-29T09:27:29;24.44;71.23
6930;DHT22;3504;52.616;13.238;2023-07-29T09:32:32;24.60;70.91
6930;DHT22;3504;52.616;13.238;2023-07-29T09:37:32;24.62;70.28
6930;DHT22;3504;52.616;13.238;2023-07-29T09:42:33;24.67;70.08
6930;DHT22;3504;52.616;13.238;2023-07-29T09:47:33;24.68;70.00
6930;DHT22;3504;52.616;13.238;2023-07-29T09:52:34;24.67;68.90
6930;DHT22;3504;52.616;13.238;2023-07-29T09:57:34;24.75;69.86
6930;DHT22;3504;52.616;13.238;2023-07-29T10:02:39;24.76;69.62
6930;DHT22;3504;52.616;13.238;2023-07-29T10:07:40;24.89;70.14
6930;DHT22;3504;52.616;13.238;2023-07-29T10:12:41;24.64;68.71
6930;DHT22;3504;52.616;13.238;2023-07-29T10:17:43;24.33;70.33
6930;DHT22;3504;52.616;13.238;2023-07-29T10:22:47;24.14;71.65
6930;DHT22;3504;52.616;13.238;2023-07-29T10:27:53;23.93;72.47
6930;DHT22;3504;52.616;13.238;2023-07-29T10:32:58;23.70;74.09
6930;DHT22;3504;52.616;13.238;2023-07-29T10:38:05;23.35;76.82
6930;DHT22;3504;52.616;13.238;2023-07-29T10:43:12;22.77;79.19
6930;DHT22;3504;52.616;13.238;2023-07-29T10:53:33;21.40;78.76
6930;DHT22;3504;52.616;13.238;2023-07-29T10:58:34;21.20;79.64
6930;DHT22;3504;52.616;13.238;2023-07-29T11:03:34;21.02;80.57
6930;DHT22;3504;52.616;13.238;2023-07-29T11:08:35;20.97;80.93
6930;DHT22;3504;52.616;13.238;2023-07-29T11:13:37;20.86;81.60
6930;DHT22;3504;52.616;13.238;2023-07-29T11:18:37;20.57;82.76
6930;DHT22;3504;52.616;13.238;2023-07-29T11:23:39;20.55;82.89
6930;DHT22;3504;52.616;13.238;2023-07-29T11:28:40;20.66;82.98
6930;DHT22;3504;52.616;13.238;2023-07-29T11:33:40;20.68;83.17
6930;DHT22;3504;52.616;13.238;2023-07-29T11:38:41;20.86;83.97
6930;DHT22;3504;52.616;13.238;2023-07-29T11:43:43;21.06;84.06
6930;DHT22;3504;52.616;13.238;2023-07-29T11:48:44;21.20;84.00
6930;DHT22;3504;52.616;13.238;2023-07-29T11:53:45;21.40;83.60
6930;DHT22;3504;52.616;13.238;2023-07-29T11:58:46;21.55;83.24
6930;DHT22;3504;52.616;13.238;2023-07-29T12:03:47;21.75;83.15
6930;DHT22;3504;52.616;13.238;2023-07-29T12:08:47;21.83;82.85
6930;DHT22;3504;52.616;13.238;2023-07-29T12:13:53;21.78;83.38
6930;DHT22;3504;52.616;13.238;2023-07-29T12:18:54;21.85;83.72
6930;DHT22;3504;52.616;13.238;2023-07-29T12:23:54;21.83;83.75
6930;DHT22;3504;52.616;13.238;2023-07-29T12:28:55;21.86;83.21
6930;DHT22;3504;52.616;13.238;2023-07-29T12:33:57;21.96;83.97
6930;DHT22;3504;52.616;13.238;2023-07-29T12:38:59;22.19;83.93
6930;DHT22;3504;52.616;13.238;2023-07-29T12:44:00;22.39;83.45
6930;DHT22;3504;52.616;13.238;2023-07-29T12:49:00;22.50;83.61
6930;DHT22;3504;52.616;13.238;2023-07-29T12:54:02;22.81;83.99
6930;DHT22;3504;52.616;13.238;2023-07-29T12:59:04;23.01;81.12
6930;DHT22;3504;52.616;13.238;2023-07-29T13:04:05;23.05;82.70
6930;DHT22;3504;52.616;13.238;2023-07-29T13:09:05;23.11;82.18
6930;DHT22;3504;52.616;13.238;2023-07-29T13:14:08;23.12;82.17
6930;DHT22;3504;52.616;13.238;2023-07-29T13:19:09;23.12;81.87
6930;DHT22;3504;52.616;13.238;2023-07-29T13:24:09;23.37;81.75
6930;DHT22;3504;52.616;13.238;2023-07-29T13:29:10;23.69;80.62
6930;DHT22;3504;52.616;13.238;2023-07-29T13:34:10;23.56;77.58
6930;DHT22;3504;52.616;13.238;2023-07-29T13:39:11;23.72;78.89
6930;DHT22;3504;52.616;13.238;2023-07-29T13:44:11;24.01;76.15
6930;DHT22;3504;52.616;13.238;2023-07-29T13:49:12;24.09;76.02
6930;DHT22;3504;52.616;13.238;2023-07-29T13:54:12;24.51;74.56
6930;DHT22;3504;52.616;13.238;2023-07-29T13:59:13;24.58;75.74
6930;DHT22;3504;52.616;13.238;2023-07-29T14:04:13;24.52;75.57
6930;DHT22;3504;52.616;13.238;2023-07-29T14:09:14;24.67;75.06
6930;DHT22;3504;52.616;13.238;2023-07-29T14:14:17;24.55;74.61
6930;DHT22;3504;52.616;13.238;2023-07-29T14:19:18;24.41;71.79
6930;DHT22;3504;52.616;13.238;2023-07-29T14:24:18;24.69;74.44
6930;DHT22;3504;52.616;13.238;2023-07-29T14:29:20;24.88;73.90
6930;DHT22;3504;52.616;13.238;2023-07-29T14:34:20;24.61;72.16
6930;DHT22;3504;52.616;13.238;2023-07-29T14:39:21;24.36;72.89
6930;DHT22;3504;52.616;13.238;2023-07-29T14:44:22;24.44;73.18
6930;DHT22;3504;52.616;13.238;2023-07-29T14:49:22;24.40;72.97
6930;DHT22;3504;52.616;13.238;2023-07-29T14:54:23;24.48;72.28
6930;DHT22;3504;52.616;13.238;2023-07-29T14:59:23;24.57;72.27
6930;DHT22;3504;52.616;13.238;2023-07-29T15:04:24;24.22;72.34
6930;DHT22;3504;52.616;13.238;2023-07-29T15:09:25;23.82;73.03
6930;DHT22;3504;52.616;13.238;2023-07-29T15:14:25;23.53;74.18
6930;DHT22;3504;52.616;13.238;2023-07-29T15:19:26;23.22;75.16
6930;DHT22;3504;52.616;13.238;2023-07-29T15:24:26;23.02;76.84
6930;DHT22;3504;52.616;13.238;2023-07-29T15:29:27;22.57;79.35
6930;DHT22;3504;52.616;13.238;2023-07-29T15:34:27;22.04;78.77
6930;DHT22;3504;52.616;13.238;2023-07-29T15:39:31;21.69;78.83
6930;DHT22;3504;52.616;13.238;2023-07-29T15:44:32;21.48;78.92
6930;DHT22;3504;52.616;13.238;2023-07-29T15:49:32;21.28;78.69
6930;DHT22;3504;52.616;13.238;2023-07-29T15:54:33;21.35;79.48
6930;DHT22;3504;52.616;13.238;2023-07-29T15:59:33;21.48;78.83
6930;DHT22;3504;52.616;13.238;2023-07-29T16:04:34;21.86;77.90
6930;DHT22;3504;52.616;13.238;2023-07-29T16:09:34;22.09;76.99
6930;DHT22;3504;52.616;13.238;2023-07-29T16:14:35;22.26;76.18
6930;DHT22;3504;52.616;13.238;2023-07-29T16:19:56;22.17;75.96
6930;DHT22;3504;52.616;13.238;2023-07-29T16:24:57;22.13;77.42
6930;DHT22;3504;52.616;13.238;2023-07-29T16:29:59;22.19;77.07
6930;DHT22;3504;52.616;13.238;2023-07-29T16:35:00;22.17;77.12
6930;DHT22;3504;52.616;13.238;2023-07-29T16:40:00;22.05;78.20
6930;DHT22;3504;52.616;13.238;2023-07-29T16:45:02;21.99;78.85
6930;DHT22;3504;52.616;13.238;2023-07-29T16:50:03;21.99;78.76
6930;DHT22;3504;52.616;13.238;2023-07-29T16:55:06;21.99;79.06
6930;DHT22;3504;52.616;13.238;2023-07-29T17:00:08;22.02;79.12
6930;DHT22;3504;52.616;13.238;2023-07-29T17:05:09;22.04;79.61
6930;DHT22;3504;52.616;13.238;2023-07-29T17:10:09;22.23;79.30
6930;DHT22;3504;52.616;13.238;2023-07-29T17:15:10;22.35;78.64
6930;DHT22;3504;52.616;13.238;2023-07-29T17:20:10;22.37;78.94
6930;DHT22;3504;52.616;13.238;2023-07-29T17:25:14;22.40;79.28
6930;DHT22;3504;52.616;13.238;2023-07-29T17:30:15;22.32;79.12
6930;DHT22;3504;52.616;13.238;2023-07-29T17:35:15;22.25;79.32
6930;DHT22;3504;52.616;13.238;2023-07-29T17:40:17;22.12;79.70
6930;DHT22;3504;52.616;13.238;2023-07-29T17:45:17;22.02;80.01
6930;DHT22;3504;52.616;13.238;2023-07-29T17:50:18;21.94;80.26
6930;DHT22;3504;52.616;13.238;2023-07-29T17:55:22;21.88;80.60
6930;DHT22;3504;52.616;13.238;2023-07-29T18:00:22;21.82;80.99
6930;DHT22;3504;52.616;13.238;2023-07-29T18:05:23;21.69;81.44
6930;DHT22;3504;52.616;13.238;2023-07-29T18:10:23;21.64;81.67
6930;DHT22;3504;52.616;13.238;2023-07-29T18:15:25;21.59;81.61
6930;DHT22;3504;52.616;13.238;2023-07-29T18:20:26;21.51;82.02
6930;DHT22;3504;52.616;13.238;2023-07-29T18:25:26;21.41;82.57
6930;DHT22;3504;52.616;13.238;2023-07-29T18:30:27;21.33;82.45
6930;DHT22;3504;52.616;13.238;2023-07-29T18:35:27;21.30;82.21
6930;DHT22;3504;52.616;13.238;2023-07-29T18:40:28;21.13;82.68
6930;DHT22;3504;52.616;13.238;2023-07-29T18:45:29;21.03;82.71
6930;DHT22;3504;52.616;13.238;2023-07-29T18:50:29;20.92;83.02
6930;DHT22;3504;52.616;13.238;2023-07-29T18:55:30;20.76;83.23
6930;DHT22;3504;52.616;13.238;2023-07-29T19:00:30;20.66;83.30
6930;DHT22;3504;52.616;13.238;2023-07-29T19:05:31;20.55;83.44
6930;DHT22;3504;52.616;13.238;2023-07-29T19:10:32;20.49;83.58
6930;DHT22;3504;52.616;13.238;2023-07-29T19:15:32;20.41;83.68
6930;DHT22;3504;52.616;13.238;2023-07-29T19:20:33;20.38;83.48
6930;DHT22;3504;52.616;13.238;2023-07-29T19:25:33;20.33;83.28
6930;DHT22;3504;52.616;13.238;2023-07-29T19:30:34;20.25;83.57
6930;DHT22;3504;52.616;13.238;2023-07-29T19:35:35;20.21;83.21
6930;DHT22;3504;52.616;13.238;2023-07-29T19:40:35;20.15;83.42
6930;DHT22;3504;52.616;13.238;2023-07-29T19:45:36;20.08;83.49
6930;DHT22;3504;52.616;13.238;2023-07-29T19:50:36;20.01;83.14
6930;DHT22;3504;52.616;13.238;2023-07-29T19:55:37;19.91;83.03
6930;DHT22;3504;52.616;13.238;2023-07-29T20:00:37;19.83;83.09
6930;DHT22;3504;52.616;13.238;2023-07-29T20:05:40;19.75;83.22
6930;DHT22;3504;52.616;13.238;2023-07-29T20:10:41;19.64;83.09
6930;DHT22;3504;52.616;13.238;2023-07-29T20:15:41;19.57;83.08
6930;DHT22;3504;52.616;13.238;2023-07-29T20:20:42;19.50;83.10
6930;DHT22;3504;52.616;13.238;2023-07-29T20:25:42;19.45;83.21
6930;DHT22;3504;52.616;13.238;2023-07-29T20:30:43;19.42;83.53
6930;DHT22;3504;52.616;13.238;2023-07-29T20:35:43;19.39;83.82
6930;DHT22;3504;52.616;13.238;2023-07-29T20:40:55;19.33;83.73
6930;DHT22;3504;52.616;13.238;2023-07-29T20:45:56;19.33;83.69
6930;DHT22;3504;52.616;13.238;2023-07-29T20:50:57;19.33;83.78
6930;DHT22;3504;52.616;13.238;2023-07-29T20:55:57;19.29;84.14
6930;DHT22;3504;52.616;13.238;2023-07-29T21:00:58;19.26;84.06
6930;DHT22;3504;52.616;13.238;2023-07-29T21:05:58;19.23;84.00
6930;DHT22;3504;52.616;13.238;2023-07-29T21:10:59;19.15;84.47
6930;DHT22;3504;52.616;13.238;2023-07-29T21:16:00;19.09;85.15
6930;DHT22;3504;52.616;13.238;2023-07-29T21:21:00;19.05;85.32
6930;DHT22;3504;52.616;13.238;2023-07-29T21:26:01;19.06;86.18
6930;DHT22;3504;52.616;13.238;2023-07-29T21:31:02;19.03;86.64
6930;DHT22;3504;52.616;13.238;2023-07-29T21:36:03;19.05;86.87
6930;DHT22;3504;52.616;13.238;2023-07-29T21:41:03;19.03;87.19
6930;DHT22;3504;52.616;13.238;2023-07-29T21:46:04;19.03;86.76
6930;DHT22;3504;52.616;13.238;2023-07-29T21:51:06;19.06;86.39
6930;DHT22;3504;52.616;13.238;2023-07-29T21:56:06;19.08;86.09
6930;DHT22;3504;52.616;13.238;2023-07-29T22:01:08;19.10;85.85
6930;DHT22;3504;52.616;13.238;2023-07-29T22:06:08;19.02;85.80
6930;DHT22;3504;52.616;13.238;2023-07-29T22:11:08;18.99;85.94
6930;DHT22;3504;52.616;13.238;2023-07-29T22:16:10;18.96;85.86
6930;DHT22;3504;52.616;13.238;2023-07-29T22:21:11;18.95;85.60
6930;DHT22;3504;52.616;13.238;2023-07-29T22:26:12;18.92;85.80
6930;DHT22;3504;52.616;13.238;2023-07-29T22:31:12;18.96;85.72
6930;DHT22;3504;52.616;13.238;2023-07-29T22:36:13;18.98;85.60
6930;DHT22;3504;52.616;13.238;2023-07-29T22:41:13;19.03;85.38
6930;DHT22;3504;52.616;13.238;2023-07-29T22:46:14;19.00;85.34
6930;DHT22;3504;52.616;13.238;2023-07-29T22:51:15;18.98;85.57
6930;DHT22;3504;52.616;13.238;2023-07-29T22:56:15;18.91;85.55
6930;DHT22;3504;52.616;13.238;2023-07-29T23:01:16;18.85;85.35
6930;DHT22;3504;52.616;13.238;2023-07-29T23:06:16;18.74;85.09
6930;DHT22;3504;52.616;13.238;2023-07-29T23:11:20;18.67;85.24
6930;DHT22;3504;52.616;13.238;2023-07-29T23:16:20;18.57;84.85
6930;DHT22;3504;52.616;13.238;2023-07-29T23:21:21;18.51;84.64
6930;DHT22;3504;52.616;13.238;2023-07-29T23:26:21;18.41;84.67
6930;DHT22;3504;52.616;13.238;2023-07-29T23:31:22;18.36;84.57
6930;DHT22;3504;52.616;13.238;2023-07-29T23:36:22;18.28;84.59
6930;DHT22;3504;52.616;13.238;2023-07-29T23:41:23;18.20;84.46
6930;DHT22;3504;52.616;13.238;2023-07-29T23:46:23;18.16;84.42
6930;DHT22;3504;52.616;13.238;2023-07-29T23:51:24;18.02;84.93
6930;DHT22;3504;52.616;13.238;2023-07-29T23:56:24;17.96;85.04
